createdAt,value
2023-05-14T00:00:20.214Z,15.72
2023-05-14T00:01:17.072Z,15.44
2023-05-14T00:02:14.505Z,15.67
2023-05-14T00:03:11.971Z,14.21
2023-05-14T00:04:08.965Z,14.84
2023-05-14T00:05:06.262Z,14.32
2023-05-14T00:06:03.265Z,14.65
2023-05-14T00:07:00.066Z,15.07
2023-05-14T00:07:56.853Z,15.74
2023-05-14T00:08:53.638Z,15.64
2023-05-14T00:09:50.476Z,15.30
2023-05-14T00:10:47.364Z,15.74
2023-05-14T00:11:44.320Z,15.48
2023-05-14T00:12:41.088Z,14.92
2023-05-14T00:13:38.095Z,15.93
2023-05-14T00:14:34.933Z,15.79
2023-05-14T00:15:34.088Z,13.31
2023-05-14T00:16:31.309Z,14.63
2023-05-14T00:17:28.191Z,13.51
2023-05-14T00:18:25.065Z,14.46
2023-05-14T00:19:21.814Z,14.38
2023-05-14T00:20:18.731Z,13.27
2023-05-14T00:21:15.598Z,16.06
2023-05-14T00:22:12.399Z,14.76
2023-05-14T00:23:09.556Z,16.10
2023-05-14T00:24:06.516Z,15.34
2023-05-14T00:25:03.351Z,16.04
2023-05-14T00:26:00.164Z,15.81
2023-05-14T00:26:56.929Z,15.62
2023-05-14T00:27:53.859Z,14.41
2023-05-14T00:28:50.794Z,15.48
2023-05-14T00:29:47.546Z,15.57
2023-05-14T00:30:44.864Z,15.82
2023-05-14T00:31:41.651Z,14.41
2023-05-14T00:32:38.420Z,16.08
2023-05-14T00:33:35.326Z,15.37
2023-05-14T00:34:32.065Z,15.89
2023-05-14T00:35:28.964Z,15.99
2023-05-14T00:36:25.778Z,14.99
2023-05-14T00:37:22.598Z,15.41
2023-05-14T00:38:19.584Z,15.71
2023-05-14T00:39:16.497Z,14.99
2023-05-14T00:40:13.440Z,15.16
2023-05-14T00:41:10.301Z,15.66
2023-05-14T00:42:07.380Z,13.44
2023-05-14T00:43:04.099Z,15.54
2023-05-14T00:44:00.825Z,14.86
2023-05-14T00:44:57.595Z,13.09
2023-05-14T00:45:56.121Z,14.99
2023-05-14T00:46:53.528Z,15.27
2023-05-14T00:47:51.837Z,14.53
2023-05-14T00:48:48.896Z,15.04
2023-05-14T00:49:46.153Z,14.95
2023-05-14T00:50:43.140Z,15.80
2023-05-14T00:51:42.274Z,15.90
2023-05-14T00:52:40.553Z,14.81
2023-05-14T00:53:37.804Z,15.25
2023-05-14T00:54:36.476Z,15.47
2023-05-14T00:55:34.182Z,15.11
2023-05-14T00:56:31.765Z,15.68
2023-05-14T00:57:28.800Z,15.57
2023-05-14T00:58:26.057Z,13.38
2023-05-14T00:59:22.912Z,13.17
2023-05-14T01:00:19.875Z,15.95
2023-05-14T01:01:16.852Z,15.81
2023-05-14T01:02:13.665Z,14.83
2023-05-14T01:03:10.620Z,14.71
2023-05-14T01:04:08.467Z,14.96
2023-05-14T01:05:06.846Z,15.52
2023-05-14T01:06:17.447Z,15.94
2023-05-14T01:07:39.830Z,16.03
2023-05-14T01:08:48.635Z,15.96
2023-05-14T01:10:11.430Z,15.89
2023-05-14T01:11:19.551Z,14.53
2023-05-14T01:12:41.998Z,15.93
2023-05-14T01:13:58.024Z,15.77
2023-05-14T01:15:02.113Z,15.20
2023-05-14T01:16:00.890Z,15.97
2023-05-14T01:17:01.389Z,15.79
2023-05-14T01:18:04.630Z,15.41
2023-05-14T01:19:06.110Z,14.81
2023-05-14T01:20:04.353Z,15.78
2023-05-14T01:21:02.005Z,15.84
2023-05-14T01:21:58.818Z,15.78
2023-05-14T01:22:55.630Z,15.15
2023-05-14T01:23:52.415Z,15.28
2023-05-14T01:24:49.435Z,15.84
2023-05-14T01:25:46.369Z,14.55
2023-05-14T01:26:43.328Z,15.50
2023-05-14T01:27:42.654Z,15.78
2023-05-14T01:28:39.991Z,13.36
2023-05-14T01:29:43.499Z,14.46
2023-05-14T01:30:57.184Z,15.61
2023-05-14T01:31:57.529Z,15.14
2023-05-14T01:32:58.895Z,14.94
2023-05-14T01:34:00.358Z,14.99
2023-05-14T01:35:00.166Z,15.46
2023-05-14T01:35:58.688Z,12.28
2023-05-14T01:36:58.239Z,12.49
2023-05-14T01:37:58.355Z,15.23
2023-05-14T01:38:56.641Z,15.25
2023-05-14T01:39:56.510Z,15.27
2023-05-14T01:40:55.531Z,15.13
2023-05-14T01:41:53.605Z,15.19
2023-05-14T01:42:53.310Z,13.18
2023-05-14T01:43:50.383Z,14.04
2023-05-14T01:44:47.513Z,15.52
2023-05-14T01:45:44.324Z,15.71
2023-05-14T01:46:41.385Z,15.78
2023-05-14T01:47:38.333Z,15.16
2023-05-14T01:48:35.129Z,15.56
2023-05-14T01:49:32.630Z,14.04
2023-05-14T01:50:29.398Z,14.81
2023-05-14T01:51:26.372Z,14.41
2023-05-14T01:52:23.326Z,15.49
2023-05-14T01:53:20.124Z,15.46
2023-05-14T01:54:16.978Z,15.06
2023-05-14T01:55:14.292Z,13.43
2023-05-14T01:56:11.142Z,14.62
2023-05-14T01:57:08.022Z,14.62
2023-05-14T01:58:05.006Z,15.48
2023-05-14T01:59:01.892Z,15.47
2023-05-14T01:59:58.643Z,13.65
2023-05-14T02:00:55.486Z,12.77
2023-05-14T02:01:52.321Z,14.26
2023-05-14T02:02:49.140Z,14.70
2023-05-14T02:03:46.065Z,13.44
2023-05-14T02:04:43.021Z,15.41
2023-05-14T02:05:39.744Z,15.24
2023-05-14T02:06:36.428Z,14.55
2023-05-14T02:07:33.246Z,14.83
2023-05-14T02:08:30.004Z,14.35
2023-05-14T02:09:26.882Z,14.75
2023-05-14T02:10:23.849Z,13.93
2023-05-14T02:11:22.027Z,14.21
2023-05-14T02:12:18.782Z,14.76
2023-05-14T02:13:15.661Z,14.06
2023-05-14T02:14:12.440Z,14.28
2023-05-14T02:15:11.044Z,13.88
2023-05-14T02:16:08.373Z,14.38
2023-05-14T02:17:05.420Z,13.78
2023-05-14T02:18:02.186Z,14.78
2023-05-14T02:18:58.971Z,15.25
2023-05-14T02:19:56.004Z,15.15
2023-05-14T02:20:52.823Z,13.64
2023-05-14T02:21:50.268Z,15.14
2023-05-14T02:22:47.089Z,15.37
2023-05-14T02:23:44.246Z,14.25
2023-05-14T02:24:41.215Z,15.25
2023-05-14T02:25:38.059Z,15.28
2023-05-14T02:26:34.861Z,14.07
2023-05-14T02:27:31.687Z,12.95
2023-05-14T02:28:28.484Z,14.32
2023-05-14T02:29:25.350Z,14.34
2023-05-14T02:30:22.853Z,15.13
2023-05-14T02:31:19.977Z,14.79
2023-05-14T02:32:16.827Z,15.33
2023-05-14T02:33:13.795Z,13.74
2023-05-14T02:34:10.885Z,15.37
2023-05-14T02:35:08.206Z,15.24
2023-05-14T02:36:04.978Z,14.54
2023-05-14T02:37:01.863Z,14.34
2023-05-14T02:37:59.594Z,14.76
2023-05-14T02:38:59.011Z,14.65
2023-05-14T02:39:55.869Z,13.33
2023-05-14T02:40:52.760Z,15.19
2023-05-14T02:41:49.517Z,14.80
2023-05-14T02:42:46.424Z,13.41
2023-05-14T02:43:43.143Z,14.56
2023-05-14T02:44:39.961Z,14.62
2023-05-14T02:45:36.725Z,15.13
2023-05-14T02:46:33.645Z,15.20
2023-05-14T02:47:30.517Z,15.33
2023-05-14T02:48:27.278Z,14.33
2023-05-14T02:49:23.997Z,14.47
2023-05-14T02:50:20.889Z,14.95
2023-05-14T02:51:19.656Z,15.12
2023-05-14T02:52:16.379Z,14.57
2023-05-14T02:53:13.095Z,14.71
2023-05-14T02:54:10.036Z,14.53
2023-05-14T02:55:07.226Z,13.89
2023-05-14T02:56:04.452Z,13.95
2023-05-14T02:57:01.322Z,12.42
2023-05-14T02:57:58.104Z,15.02
2023-05-14T02:58:54.852Z,14.30
2023-05-14T02:59:52.110Z,15.05
2023-05-14T03:00:49.421Z,14.85
2023-05-14T03:01:47.197Z,14.27
2023-05-14T03:02:44.822Z,14.58
2023-05-14T03:03:42.360Z,13.68
2023-05-14T03:04:39.500Z,14.88
2023-05-14T03:05:36.256Z,12.65
2023-05-14T03:06:33.130Z,14.79
2023-05-14T03:07:29.952Z,14.50
2023-05-14T03:08:26.741Z,14.69
2023-05-14T03:09:23.446Z,14.80
2023-05-14T03:10:20.411Z,15.13
2023-05-14T03:11:17.288Z,14.99
2023-05-14T03:12:14.486Z,14.95
2023-05-14T03:13:11.625Z,14.48
2023-05-14T03:14:08.507Z,14.34
2023-05-14T03:15:05.639Z,14.51
2023-05-14T03:16:02.435Z,14.49
2023-05-14T03:16:59.300Z,14.44
2023-05-14T03:17:56.439Z,13.98
2023-05-14T03:18:53.381Z,14.95
2023-05-14T03:19:50.277Z,15.02
2023-05-14T03:20:47.807Z,15.01
2023-05-14T03:21:44.728Z,15.08
2023-05-14T03:22:41.603Z,14.71
2023-05-14T03:23:38.374Z,14.94
2023-05-14T03:24:35.321Z,14.21
2023-05-14T03:25:32.047Z,13.44
2023-05-14T03:26:28.996Z,14.74
2023-05-14T03:27:25.922Z,13.78
2023-05-14T03:28:22.681Z,14.91
2023-05-14T03:29:19.539Z,14.70
2023-05-14T03:30:16.432Z,13.95
2023-05-14T03:31:13.218Z,14.78
2023-05-14T03:32:10.151Z,14.54
2023-05-14T03:33:07.086Z,14.58
2023-05-14T03:34:04.011Z,13.70
2023-05-14T03:35:00.725Z,13.34
2023-05-14T03:35:57.850Z,14.10
2023-05-14T03:36:54.640Z,14.28
2023-05-14T03:37:53.016Z,14.57
2023-05-14T03:38:49.813Z,14.64
2023-05-14T03:39:46.703Z,13.75
2023-05-14T03:40:45.588Z,14.35
2023-05-14T03:41:42.546Z,14.64
2023-05-14T03:42:39.660Z,14.27
2023-05-14T03:43:36.446Z,13.29
2023-05-14T03:44:33.363Z,13.47
2023-05-14T03:45:30.660Z,14.28
2023-05-14T03:46:27.453Z,14.01
2023-05-14T03:47:24.293Z,13.92
2023-05-14T03:48:21.230Z,13.75
2023-05-14T03:49:18.002Z,14.02
2023-05-14T03:50:14.844Z,14.63
2023-05-14T03:51:11.565Z,13.82
2023-05-14T03:52:08.399Z,14.68
2023-05-14T03:53:05.190Z,14.20
2023-05-14T03:54:04.342Z,14.11
2023-05-14T03:55:01.169Z,14.27
2023-05-14T03:55:57.875Z,14.28
2023-05-14T03:56:54.624Z,13.66
2023-05-14T03:57:51.417Z,14.02
2023-05-14T03:58:51.049Z,13.91
2023-05-14T03:59:48.086Z,14.34
2023-05-14T04:00:45.129Z,14.18
2023-05-14T04:01:42.114Z,13.74
2023-05-14T04:02:38.968Z,14.22
2023-05-14T04:03:36.010Z,14.38
2023-05-14T04:04:33.432Z,14.30
2023-05-14T04:05:30.359Z,14.54
2023-05-14T04:06:27.420Z,13.90
2023-05-14T04:07:24.205Z,13.68
2023-05-14T04:08:20.980Z,14.61
2023-05-14T04:09:17.902Z,13.58
2023-05-14T04:10:14.823Z,13.83
2023-05-14T04:11:11.544Z,13.98
2023-05-14T04:12:08.713Z,14.61
2023-05-14T04:13:05.471Z,12.64
2023-05-14T04:14:02.365Z,14.39
2023-05-14T04:14:59.110Z,14.67
2023-05-14T04:15:55.837Z,13.79
2023-05-14T04:16:52.643Z,14.68
2023-05-14T04:17:49.594Z,14.12
2023-05-14T04:18:46.649Z,14.17
2023-05-14T04:19:43.677Z,13.48
2023-05-14T04:20:40.813Z,14.55
2023-05-14T04:21:37.558Z,14.60
2023-05-14T04:22:34.316Z,14.74
2023-05-14T04:23:32.023Z,14.70
2023-05-14T04:24:28.787Z,14.67
2023-05-14T04:25:25.575Z,14.12
2023-05-14T04:26:22.343Z,12.91
2023-05-14T04:27:22.340Z,14.53
2023-05-14T04:28:19.198Z,13.06
2023-05-14T04:29:16.012Z,14.36
2023-05-14T04:30:13.057Z,14.44
2023-05-14T04:31:09.831Z,13.67
2023-05-14T04:32:07.802Z,14.34
2023-05-14T04:33:04.846Z,13.62
2023-05-14T04:34:01.727Z,14.64
2023-05-14T04:34:58.456Z,13.30
2023-05-14T04:35:55.762Z,14.75
2023-05-14T04:36:52.751Z,14.15
2023-05-14T04:37:49.455Z,13.94
2023-05-14T04:38:46.537Z,13.90
2023-05-14T04:39:43.730Z,13.88
2023-05-14T04:40:41.582Z,13.90
2023-05-14T04:41:38.709Z,14.39
2023-05-14T04:42:35.485Z,14.42
2023-05-14T04:43:32.249Z,14.25
2023-05-14T04:44:29.086Z,14.18
2023-05-14T04:45:26.627Z,13.47
2023-05-14T04:46:23.499Z,14.28
2023-05-14T04:47:21.198Z,12.15
2023-05-14T04:48:18.171Z,14.29
2023-05-14T04:49:14.948Z,14.18
2023-05-14T04:50:12.016Z,14.17
2023-05-14T04:51:08.743Z,13.49
2023-05-14T04:52:06.919Z,12.91
2023-05-14T04:53:03.757Z,11.57
2023-05-14T04:54:00.501Z,13.95
2023-05-14T04:54:57.393Z,14.12
2023-05-14T04:55:54.302Z,13.50
2023-05-14T04:56:51.240Z,13.82
2023-05-14T04:57:48.002Z,14.04
2023-05-14T04:58:44.773Z,12.67
2023-05-14T04:59:41.492Z,13.59
2023-05-14T05:00:38.398Z,13.71
2023-05-14T05:01:35.205Z,13.08
2023-05-14T05:02:32.241Z,14.01
2023-05-14T05:03:29.434Z,14.01
2023-05-14T05:04:26.454Z,13.74
2023-05-14T05:05:26.157Z,13.15
2023-05-14T05:06:23.058Z,10.84
2023-05-14T05:07:19.851Z,12.54
2023-05-14T05:08:16.630Z,11.50
2023-05-14T05:09:14.134Z,13.31
2023-05-14T05:10:11.057Z,13.07
2023-05-14T05:11:07.901Z,13.19
2023-05-14T05:12:05.506Z,12.42
2023-05-14T05:13:02.333Z,12.78
2023-05-14T05:13:59.108Z,12.34
2023-05-14T05:14:58.874Z,13.16
2023-05-14T05:15:55.735Z,12.37
2023-05-14T05:16:52.557Z,12.57
2023-05-14T05:17:49.390Z,11.98
2023-05-14T05:18:46.377Z,11.98
2023-05-14T05:19:44.489Z,12.82
2023-05-14T05:20:41.494Z,11.87
2023-05-14T05:21:40.725Z,12.77
2023-05-14T05:22:37.554Z,12.64
2023-05-14T05:23:34.522Z,12.89
2023-05-14T05:24:31.239Z,12.79
2023-05-14T05:25:27.982Z,12.43
2023-05-14T05:26:26.900Z,12.58
2023-05-14T05:27:23.688Z,12.43
2023-05-14T05:28:20.414Z,12.68
2023-05-14T05:29:17.207Z,12.71
2023-05-14T05:30:14.140Z,12.65
2023-05-14T05:31:11.032Z,12.50
2023-05-14T05:32:08.197Z,11.51
2023-05-14T05:33:05.207Z,12.27
2023-05-14T05:34:03.226Z,12.79
2023-05-14T05:35:00.012Z,12.71
2023-05-14T05:35:56.902Z,12.69
2023-05-14T05:36:53.655Z,12.68
2023-05-14T05:37:50.414Z,11.77
2023-05-14T05:38:47.195Z,12.48
2023-05-14T05:39:44.017Z,12.22
2023-05-14T05:40:40.981Z,12.11
2023-05-14T05:41:37.687Z,12.57
2023-05-14T05:42:34.489Z,11.64
2023-05-14T05:43:31.360Z,12.10
2023-05-14T05:44:28.370Z,11.38
2023-05-14T05:45:25.105Z,12.00
2023-05-14T05:46:24.410Z,10.35
2023-05-14T05:47:21.283Z,11.89
2023-05-14T05:48:20.597Z,11.66
2023-05-14T05:49:17.566Z,11.79
2023-05-14T05:50:17.542Z,11.16
2023-05-14T05:51:15.335Z,9.78
2023-05-14T05:52:30.459Z,12.35
2023-05-14T05:53:27.316Z,12.10
2023-05-14T05:54:25.571Z,12.18
2023-05-14T05:55:22.383Z,11.57
2023-05-14T05:56:19.205Z,10.32
2023-05-14T05:57:16.177Z,12.49
2023-05-14T05:58:17.376Z,11.84
2023-05-14T05:59:14.192Z,11.42
2023-05-14T06:00:15.207Z,11.25
2023-05-14T06:01:12.052Z,11.70
2023-05-14T06:02:08.905Z,11.39
2023-05-14T06:03:06.051Z,11.98
2023-05-14T06:04:04.538Z,11.57
2023-05-14T06:05:01.734Z,12.17
2023-05-14T06:05:58.638Z,11.37
2023-05-14T06:06:55.554Z,12.24
2023-05-14T06:07:53.887Z,11.56
2023-05-14T06:08:51.649Z,12.38
2023-05-14T06:09:48.616Z,11.65
2023-05-14T06:10:47.547Z,12.28
2023-05-14T06:11:44.818Z,10.28
2023-05-14T06:12:41.895Z,11.25
2023-05-14T06:13:38.849Z,11.66
2023-05-14T06:14:35.938Z,12.63
2023-05-14T06:15:33.145Z,12.26
2023-05-14T06:16:29.998Z,11.82
2023-05-14T06:17:27.463Z,11.78
2023-05-14T06:18:24.679Z,11.03
2023-05-14T06:19:22.033Z,12.55
2023-05-14T06:20:19.755Z,11.62
2023-05-14T06:21:16.541Z,11.65
2023-05-14T06:22:14.824Z,11.90
2023-05-14T06:23:12.427Z,11.11
2023-05-14T06:24:09.430Z,11.21
2023-05-14T06:25:06.933Z,12.53
2023-05-14T06:26:03.743Z,11.67
2023-05-14T06:27:00.651Z,11.73
2023-05-14T06:27:57.756Z,12.01
2023-05-14T06:28:54.717Z,12.34
2023-05-14T06:29:51.492Z,12.07
2023-05-14T06:30:50.481Z,10.96
2023-05-14T06:31:47.332Z,11.83
2023-05-14T06:32:44.234Z,11.92
2023-05-14T06:33:41.474Z,12.13
2023-05-14T06:34:38.237Z,12.19
2023-05-14T06:35:35.147Z,9.77
2023-05-14T06:36:32.166Z,11.34
2023-05-14T06:37:28.848Z,12.51
2023-05-14T06:38:25.767Z,12.30
2023-05-14T06:39:25.662Z,12.51
2023-05-14T06:40:22.900Z,12.42
2023-05-14T06:41:20.040Z,12.27
2023-05-14T06:42:17.974Z,12.27
2023-05-14T06:43:14.991Z,11.45
2023-05-14T06:44:11.890Z,11.83
2023-05-14T06:45:08.783Z,12.51
2023-05-14T06:46:05.700Z,11.81
2023-05-14T06:47:02.430Z,12.72
2023-05-14T06:47:59.321Z,11.86
2023-05-14T06:48:59.211Z,12.67
2023-05-14T06:49:58.606Z,12.23
2023-05-14T06:50:55.420Z,12.64
2023-05-14T06:51:52.359Z,12.36
2023-05-14T06:52:49.085Z,12.41
2023-05-14T06:53:46.877Z,11.73
2023-05-14T06:54:43.693Z,12.53
2023-05-14T06:55:40.409Z,12.19
2023-05-14T06:56:37.180Z,11.86
2023-05-14T06:57:34.705Z,12.21
2023-05-14T06:58:31.469Z,12.54
2023-05-14T06:59:28.269Z,11.50
2023-05-14T07:00:25.649Z,12.17
2023-05-14T07:01:22.816Z,12.56
2023-05-14T07:02:19.558Z,11.65
2023-05-14T07:03:16.440Z,12.10
2023-05-14T07:04:13.232Z,12.85
2023-05-14T07:05:11.156Z,12.53
2023-05-14T07:06:08.059Z,12.54
2023-05-14T07:07:05.738Z,12.29
2023-05-14T07:08:02.490Z,11.65
2023-05-14T07:09:00.862Z,12.36
2023-05-14T07:09:57.607Z,12.00
2023-05-14T07:10:54.398Z,11.17
2023-05-14T07:11:51.171Z,12.18
2023-05-14T07:12:47.981Z,11.68
2023-05-14T07:13:44.841Z,11.34
2023-05-14T07:14:41.709Z,12.28
2023-05-14T07:15:38.500Z,12.28
2023-05-14T07:16:36.066Z,11.44
2023-05-14T07:17:32.902Z,11.49
2023-05-14T07:18:29.662Z,12.21
2023-05-14T07:19:28.750Z,11.12
2023-05-14T07:20:26.010Z,11.45
2023-05-14T07:21:23.009Z,11.67
2023-05-14T07:22:19.767Z,12.51
2023-05-14T07:23:18.539Z,12.04
2023-05-14T07:24:16.546Z,11.99
2023-05-14T07:25:13.587Z,12.03
2023-05-14T07:26:10.613Z,12.39
2023-05-14T07:27:08.640Z,11.56
2023-05-14T07:28:05.448Z,12.49
2023-05-14T07:29:02.251Z,12.11
2023-05-14T07:29:59.055Z,11.77
2023-05-14T07:30:55.998Z,11.54
2023-05-14T07:31:52.843Z,12.35
2023-05-14T07:32:49.975Z,12.30
2023-05-14T07:33:46.776Z,12.28
2023-05-14T07:34:43.613Z,11.62
2023-05-14T07:35:40.463Z,12.33
2023-05-14T07:36:37.570Z,12.43
2023-05-14T07:37:34.680Z,11.74
2023-05-14T07:38:32.160Z,11.68
2023-05-14T07:39:28.862Z,12.50
2023-05-14T07:40:25.914Z,12.47
2023-05-14T07:41:22.887Z,12.58
2023-05-14T07:42:31.753Z,12.07
2023-05-14T07:43:31.802Z,12.27
2023-05-14T07:44:28.616Z,12.66
2023-05-14T07:45:25.505Z,11.67
2023-05-14T07:46:22.332Z,12.63
2023-05-14T07:47:19.377Z,12.55
2023-05-14T07:48:16.273Z,12.48
2023-05-14T07:49:13.146Z,10.71
2023-05-14T07:50:10.544Z,11.24
2023-05-14T07:51:07.618Z,12.60
2023-05-14T07:52:04.653Z,12.02
2023-05-14T07:53:01.467Z,12.72
2023-05-14T07:53:58.358Z,11.83
2023-05-14T07:54:55.125Z,11.82
2023-05-14T07:55:52.246Z,12.30
2023-05-14T07:56:49.210Z,11.63
2023-05-14T07:57:46.148Z,10.47
2023-05-14T07:58:42.851Z,12.64
2023-05-14T07:59:39.770Z,12.96
2023-05-14T08:00:36.536Z,12.08
2023-05-14T08:01:33.303Z,12.45
2023-05-14T08:02:30.162Z,11.46
2023-05-14T08:03:27.077Z,11.66
2023-05-14T08:04:23.903Z,11.45
2023-05-14T08:05:20.750Z,11.72
2023-05-14T08:06:18.002Z,12.52
2023-05-14T08:07:14.731Z,12.03
2023-05-14T08:08:12.609Z,12.72
2023-05-14T08:09:09.747Z,12.92
2023-05-14T08:10:07.864Z,12.08
2023-05-14T08:11:04.822Z,11.69
2023-05-14T08:12:01.673Z,12.15
2023-05-14T08:12:58.448Z,12.87
2023-05-14T08:13:55.440Z,12.87
2023-05-14T08:14:52.334Z,12.69
2023-05-14T08:15:49.526Z,12.32
2023-05-14T08:16:46.318Z,13.22
2023-05-14T08:17:43.847Z,12.30
2023-05-14T08:18:41.069Z,11.32
2023-05-14T08:19:38.099Z,12.73
2023-05-14T08:20:34.927Z,13.00
2023-05-14T08:21:32.656Z,12.63
2023-05-14T08:22:29.607Z,13.06
2023-05-14T08:23:26.990Z,12.38
2023-05-14T08:24:23.717Z,12.61
2023-05-14T08:25:20.814Z,12.12
2023-05-14T08:26:17.614Z,12.72
2023-05-14T08:27:14.441Z,12.29
2023-05-14T08:28:11.224Z,12.94
2023-05-14T08:29:09.355Z,12.20
2023-05-14T08:30:08.001Z,10.89
2023-05-14T08:31:05.014Z,12.38
2023-05-14T08:32:11.658Z,12.29
2023-05-14T08:33:18.094Z,12.90
2023-05-14T08:34:14.848Z,12.94
2023-05-14T08:35:11.656Z,11.81
2023-05-14T08:36:08.618Z,12.93
2023-05-14T08:37:05.327Z,12.82
2023-05-14T08:38:02.082Z,12.77
2023-05-14T08:38:58.882Z,12.50
2023-05-14T08:39:56.276Z,12.42
2023-05-14T08:40:58.740Z,12.44
2023-05-14T08:41:57.895Z,12.56
2023-05-14T08:42:57.000Z,12.67
2023-05-14T08:44:11.780Z,13.07
2023-05-14T08:45:25.819Z,12.03
2023-05-14T08:46:25.177Z,12.81
2023-05-14T08:47:25.656Z,12.78
2023-05-14T08:48:23.327Z,11.54
2023-05-14T08:49:31.085Z,12.66
2023-05-14T08:50:30.250Z,12.53
2023-05-14T08:51:28.186Z,12.09
2023-05-14T08:52:25.260Z,12.65
2023-05-14T08:53:22.097Z,11.86
2023-05-14T08:54:19.475Z,12.38
2023-05-14T08:55:16.338Z,12.58
2023-05-14T08:56:16.466Z,12.15
2023-05-14T08:57:14.009Z,12.87
2023-05-14T08:58:11.010Z,12.66
2023-05-14T08:59:07.757Z,12.86
2023-05-14T09:00:08.434Z,12.51
2023-05-14T09:01:05.775Z,12.63
2023-05-14T09:02:05.162Z,12.33
2023-05-14T09:03:04.038Z,13.20
2023-05-14T09:04:07.191Z,12.97
2023-05-14T09:05:04.330Z,12.34
2023-05-14T09:06:02.158Z,12.92
2023-05-14T09:07:02.422Z,12.84
2023-05-14T09:07:59.890Z,12.46
2023-05-14T09:08:56.617Z,13.16
2023-05-14T09:09:54.379Z,13.17
2023-05-14T09:10:51.525Z,12.72
2023-05-14T09:11:52.938Z,13.00
2023-05-14T09:12:49.726Z,12.96
2023-05-14T09:13:46.535Z,13.34
2023-05-14T09:14:44.415Z,13.19
2023-05-14T09:15:41.735Z,12.98
2023-05-14T09:16:42.624Z,13.18
2023-05-14T09:17:39.817Z,12.73
2023-05-14T09:18:37.286Z,12.70
2023-05-14T09:19:34.389Z,13.38
2023-05-14T09:20:32.413Z,13.50
2023-05-14T09:21:32.151Z,12.33
2023-05-14T09:22:32.304Z,12.80
2023-05-14T09:23:33.851Z,13.05
2023-05-14T09:24:30.830Z,13.23
2023-05-14T09:25:30.933Z,13.48
2023-05-14T09:26:32.199Z,13.30
2023-05-14T09:27:31.148Z,12.92
2023-05-14T09:28:28.756Z,11.67
2023-05-14T09:29:26.513Z,13.02
2023-05-14T09:30:26.577Z,13.03
2023-05-14T09:31:23.879Z,12.14
2023-05-14T09:32:20.788Z,12.97
2023-05-14T09:33:30.106Z,12.93
2023-05-14T09:34:29.445Z,13.21
2023-05-14T09:35:26.605Z,12.80
2023-05-14T09:36:25.153Z,13.26
2023-05-14T09:37:22.121Z,12.95
2023-05-14T09:38:18.896Z,13.14
2023-05-14T09:39:16.189Z,12.36
2023-05-14T09:40:14.019Z,13.10
2023-05-14T09:41:11.546Z,13.22
2023-05-14T09:42:08.391Z,12.24
2023-05-14T09:43:05.117Z,12.84
2023-05-14T09:44:03.330Z,11.98
2023-05-14T09:45:01.785Z,12.56
2023-05-14T09:45:58.625Z,11.64
2023-05-14T09:46:56.642Z,12.34
2023-05-14T09:47:53.552Z,12.73
2023-05-14T09:48:50.639Z,11.98
2023-05-14T09:49:48.943Z,12.78
2023-05-14T09:50:47.108Z,12.57
2023-05-14T09:51:43.976Z,12.85
2023-05-14T09:52:41.101Z,12.56
2023-05-14T09:53:38.172Z,12.03
2023-05-14T09:54:36.147Z,12.22
2023-05-14T09:55:33.802Z,12.61
2023-05-14T09:56:30.727Z,12.95
2023-05-14T09:57:27.800Z,12.93
2023-05-14T09:58:24.610Z,12.92
2023-05-14T09:59:21.551Z,11.85
2023-05-14T10:00:19.286Z,12.71
2023-05-14T10:01:20.755Z,10.98
2023-05-14T10:02:40.614Z,12.08
2023-05-14T10:03:37.733Z,12.74
2023-05-14T10:04:36.054Z,12.96
2023-05-14T10:05:37.699Z,11.89
2023-05-14T10:06:38.174Z,12.20
2023-05-14T10:07:49.538Z,12.90
2023-05-14T10:08:49.295Z,11.90
2023-05-14T10:09:46.764Z,11.77
2023-05-14T10:10:43.567Z,11.23
2023-05-14T10:11:44.771Z,12.18
2023-05-14T10:12:45.549Z,12.11
2023-05-14T10:13:51.171Z,12.57
2023-05-14T10:14:50.556Z,12.00
2023-05-14T10:15:52.281Z,12.11
2023-05-14T10:16:51.552Z,11.99
2023-05-14T10:17:55.613Z,11.80
2023-05-14T10:18:57.633Z,12.99
2023-05-14T10:19:59.085Z,12.83
2023-05-14T10:21:05.766Z,11.92
2023-05-14T10:22:09.314Z,12.64
2023-05-14T10:23:07.542Z,12.58
2023-05-14T10:24:06.006Z,12.18
2023-05-14T10:25:04.027Z,12.05
2023-05-14T10:26:01.948Z,11.69
2023-05-14T10:26:58.987Z,11.92
2023-05-14T10:27:56.699Z,11.85
2023-05-14T10:28:53.854Z,12.08
2023-05-14T10:29:55.513Z,11.72
2023-05-14T10:30:54.807Z,12.47
2023-05-14T10:31:55.507Z,12.62
2023-05-14T10:33:24.586Z,12.67
2023-05-14T10:34:34.826Z,12.58
2023-05-14T10:36:01.522Z,11.44
2023-05-14T10:37:02.601Z,12.68
2023-05-14T10:37:59.318Z,12.46
2023-05-14T10:38:59.252Z,11.91
2023-05-14T10:40:06.308Z,12.83
2023-05-14T10:41:04.538Z,12.58
2023-05-14T10:42:01.401Z,11.73
2023-05-14T10:42:59.379Z,12.12
2023-05-14T10:43:57.818Z,12.76
2023-05-14T10:44:58.891Z,12.69
2023-05-14T10:45:56.459Z,11.84
2023-05-14T10:46:53.383Z,11.75
2023-05-14T10:47:50.233Z,12.76
2023-05-14T10:48:47.192Z,12.34
2023-05-14T10:49:49.089Z,10.82
2023-05-14T10:50:48.836Z,12.45
2023-05-14T10:51:49.508Z,12.59
2023-05-14T10:52:46.371Z,11.35
2023-05-14T10:53:43.825Z,12.50
2023-05-14T10:54:40.647Z,11.79
2023-05-14T10:55:39.109Z,12.69
2023-05-14T10:56:37.298Z,12.20
2023-05-14T10:57:38.138Z,13.16
2023-05-14T10:58:39.392Z,12.99
2023-05-14T10:59:36.288Z,12.61
2023-05-14T11:00:35.853Z,10.88
2023-05-14T11:01:33.317Z,13.37
2023-05-14T11:02:39.290Z,13.23
2023-05-14T11:03:47.081Z,13.02
2023-05-14T11:04:55.319Z,10.89
2023-05-14T11:05:52.439Z,13.02
2023-05-14T11:06:50.809Z,13.03
2023-05-14T11:07:50.359Z,12.40
2023-05-14T11:08:48.427Z,12.01
2023-05-14T11:09:47.214Z,12.97
2023-05-14T11:10:46.845Z,12.43
2023-05-14T11:11:43.951Z,13.16
2023-05-14T11:12:42.756Z,13.23
2023-05-14T11:13:39.677Z,12.97
2023-05-14T11:14:36.601Z,13.33
2023-05-14T11:15:33.857Z,12.72
2023-05-14T11:16:31.502Z,13.25
2023-05-14T11:17:30.723Z,13.11
2023-05-14T11:18:38.665Z,13.10
2023-05-14T11:19:35.775Z,11.25
2023-05-14T11:20:32.854Z,13.32
2023-05-14T11:21:30.444Z,13.08
2023-05-14T11:22:27.645Z,13.62
2023-05-14T11:23:25.736Z,13.26
2023-05-14T11:24:23.059Z,12.72
2023-05-14T11:25:21.758Z,13.20
2023-05-14T11:26:21.408Z,13.65
2023-05-14T11:27:20.984Z,12.51
2023-05-14T11:28:17.829Z,13.51
2023-05-14T11:29:14.710Z,12.79
2023-05-14T11:30:14.772Z,13.69
2023-05-14T11:31:11.675Z,13.17
2023-05-14T11:32:08.562Z,13.26
2023-05-14T11:33:05.665Z,13.01
2023-05-14T11:34:04.277Z,13.59
2023-05-14T11:35:01.064Z,12.76
2023-05-14T11:35:57.823Z,13.49
2023-05-14T11:36:54.544Z,13.42
2023-05-14T11:37:52.663Z,12.33
2023-05-14T11:38:51.497Z,12.58
2023-05-14T11:39:54.596Z,12.27
2023-05-14T11:40:53.551Z,13.20
2023-05-14T11:41:50.317Z,13.44
2023-05-14T11:42:47.115Z,13.01
2023-05-14T11:43:44.182Z,12.85
2023-05-14T11:44:42.333Z,13.40
2023-05-14T11:45:39.181Z,12.67
2023-05-14T11:46:36.085Z,13.39
2023-05-14T11:47:32.931Z,13.08
2023-05-14T11:48:32.104Z,12.33
2023-05-14T11:49:29.345Z,13.41
2023-05-14T11:50:26.316Z,13.50
2023-05-14T11:51:23.427Z,13.71
2023-05-14T11:52:21.853Z,13.94
2023-05-14T11:53:25.866Z,14.03
2023-05-14T11:54:22.729Z,13.82
2023-05-14T11:55:21.061Z,13.91
2023-05-14T11:56:17.873Z,12.49
2023-05-14T11:57:17.160Z,13.13
2023-05-14T11:58:14.161Z,13.21
2023-05-14T11:59:11.614Z,13.68
2023-05-14T12:00:11.277Z,12.82
2023-05-14T12:01:13.664Z,13.45
2023-05-14T12:02:13.448Z,13.37
2023-05-14T12:03:10.318Z,13.73
2023-05-14T12:04:07.234Z,13.05
2023-05-14T12:05:07.278Z,12.76
2023-05-14T12:06:09.720Z,13.53
2023-05-14T12:07:15.712Z,12.97
2023-05-14T12:08:23.319Z,13.86
2023-05-14T12:09:21.381Z,12.43
2023-05-14T12:10:18.213Z,14.02
2023-05-14T12:11:15.065Z,14.16
2023-05-14T12:12:12.892Z,14.13
2023-05-14T12:13:09.711Z,13.78
2023-05-14T12:14:19.602Z,13.69
2023-05-14T12:15:20.626Z,13.38
2023-05-14T12:16:18.309Z,13.65
2023-05-14T12:17:20.592Z,12.84
2023-05-14T12:18:24.744Z,14.05
2023-05-14T12:19:23.501Z,13.65
2023-05-14T12:20:20.660Z,14.05
2023-05-14T12:21:17.485Z,13.61
2023-05-14T12:22:17.240Z,12.36
2023-05-14T12:23:14.170Z,14.23
2023-05-14T12:24:14.234Z,13.50
2023-05-14T12:25:16.013Z,13.50
2023-05-14T12:26:12.803Z,13.26
2023-05-14T12:27:10.877Z,14.18
2023-05-14T12:28:15.867Z,13.22
2023-05-14T12:29:14.675Z,13.96